Aviation Digital Data Service (ADDS)

Output produced by TAFs form (1117 UTC 24 October 2014)
found at http://aviationweather.gov/adds/tafs/
 
KTEX 240520Z 2406/2506 13004KT P6SM SCT250 
     FM240700 16005KT P6SM SCT250 
     FM241900 26008KT P6SM SCT140 SCT250 
     FM250100 13005KT P6SM SCT250